Time;durP1;ratioP1;P1;durP2;ratioP2;P2;SDS_P1;SDS_P2;PMS_P1;PMS_P2;Temp;Humidity;BMP_temperature;BMP_pressure;BME280_temperature;BME280_humidity;BME280_pressure;Samples;Min_cycle;Max_cycle;Signal;HPM_P1;HPM_P2
2022/08/11 00:02:34;;;;;;;2.15;0.90;;;25.00;59.30;;;;;;4935091;29;20190;-75
2022/08/11 00:05:07;;;;;;;3.97;0.82;;;24.90;59.20;;;;;;4938459;28;20195;-75
2022/08/11 00:07:43;;;;;;;3.92;0.85;;;25.00;59.30;;;;;;4936077;29;20281;-74
2022/08/11 00:10:16;;;;;;;2.15;0.98;;;24.90;59.40;;;;;;4936120;29;20542;-76
2022/08/11 00:12:52;;;;;;;2.38;0.90;;;24.90;59.70;;;;;;4929627;28;20223;-76
2022/08/11 00:15:21;;;;;;;1.63;0.95;;;24.80;59.90;;;;;;4938036;28;20190;-75
2022/08/11 00:17:56;;;;;;;3.15;1.02;;;24.80;60.00;;;;;;4938337;29;20200;-74
2022/08/11 00:20:30;;;;;;;3.83;1.10;;;24.80;60.30;;;;;;4933646;29;20189;-74
2022/08/11 00:23:06;;;;;;;3.83;0.90;;;24.80;60.50;;;;;;4932952;28;20197;-74
2022/08/11 00:25:39;;;;;;;2.65;1.00;;;24.80;60.80;;;;;;4939925;28;20201;-74
2022/08/11 00:28:29;;;;;;;1.60;1.00;;;24.70;61.00;;;;;;4938517;29;20564;-74
2022/08/11 00:31:01;;;;;;;2.65;1.00;;;24.70;61.40;;;;;;4933958;28;20195;-75
2022/08/11 00:33:35;;;;;;;2.50;1.20;;;24.70;61.50;;;;;;4929860;29;20210;-74
2022/08/11 00:36:15;;;;;;;3.10;1.20;;;24.60;61.70;;;;;;4929940;29;20222;-75
2022/08/11 00:38:49;;;;;;;3.65;1.40;;;24.60;61.80;;;;;;4936460;29;20375;-75
2022/08/11 00:41:29;;;;;;;4.55;1.83;;;24.60;62.00;;;;;;4935925;29;20201;-75
2022/08/11 00:44:28;;;;;;;4.28;1.40;;;24.50;62.30;;;;;;4931026;29;20631;-75
2022/08/11 00:47:11;;;;;;;3.13;1.20;;;24.50;62.50;;;;;;4931912;29;20195;-74
2022/08/11 00:49:52;;;;;;;3.88;1.70;;;24.50;62.60;;;;;;4932889;28;20230;-74
2022/08/11 00:52:33;;;;;;;2.28;1.42;;;24.50;62.80;;;;;;4927804;29;20195;-74
2022/08/11 00:55:26;;;;;;;3.50;1.30;;;24.40;62.80;;;;;;4933434;28;20198;-74
2022/08/11 00:58:29;;;;;;;3.08;1.55;;;24.40;62.90;;;;;;4935927;29;20210;-75
2022/08/11 01:01:22;;;;;;;3.80;1.70;;;24.40;63.20;;;;;;4938315;28;20198;-75
2022/08/11 01:04:26;;;;;;;3.55;1.92;;;24.40;63.30;;;;;;4936852;29;20190;-76
2022/08/11 01:07:38;;;;;;;2.45;1.42;;;24.30;63.50;;;;;;4890075;28;20221;-75
2022/08/11 01:11:13;;;;;;;4.07;1.60;;;24.30;63.60;;;;;;4935284;29;20206;-75
2022/08/11 01:14:33;;;;;;;4.97;1.92;;;24.30;63.80;;;;;;4934556;28;20223;-75
2022/08/11 01:17:35;;;;;;;3.22;1.60;;;24.20;63.90;;;;;;4936771;29;20799;-75
2022/08/11 01:20:38;;;;;;;4.75;1.70;;;24.20;64.10;;;;;;4930197;29;20199;-75
2022/08/11 01:24:07;;;;;;;2.83;1.42;;;24.20;64.30;;;;;;4932928;29;20194;-75
2022/08/11 01:27:26;;;;;;;2.60;1.75;;;24.10;64.30;;;;;;4936927;29;20198;-75
2022/08/11 01:30:28;;;;;;;3.17;1.55;;;24.10;64.40;;;;;;4933563;29;20206;-77
2022/08/11 01:33:38;;;;;;;4.30;2.17;;;24.10;64.60;;;;;;4937710;28;20222;-76
2022/08/11 01:36:52;;;;;;;8.27;1.70;;;24.00;64.60;;;;;;4900896;29;20203;-75
2022/08/11 01:40:09;;;;;;;4.07;1.95;;;24.00;64.90;;;;;;4930433;29;20226;-75
2022/08/11 01:46:16;;;;;;;10.23;2.40;;;24.00;65.00;;;;;;4926341;28;20831;-75
2022/08/11 01:48:54;;;;;;;4.90;2.65;;;24.00;65.20;;;;;;4938111;28;20952;-76
2022/08/11 01:51:38;;;;;;;7.20;2.22;;;23.90;65.50;;;;;;4934565;28;20194;-75
2022/08/11 01:54:22;;;;;;;8.13;3.00;;;23.90;65.70;;;;;;4936588;29;20457;-75
2022/08/11 01:57:09;;;;;;;5.30;2.50;;;23.90;67.30;;;;;;4940450;29;20456;-74
2022/08/11 01:59:47;;;;;;;5.20;2.42;;;23.80;66.90;;;;;;4932802;29;20317;-75
2022/08/11 02:02:46;;;;;;;5.22;2.38;;;23.80;66.80;;;;;;4933338;29;20209;-75
2022/08/11 02:05:27;;;;;;;4.68;2.20;;;23.70;66.70;;;;;;4931890;29;20202;-74
2022/08/11 02:08:03;;;;;;;11.50;2.65;;;23.80;66.70;;;;;;4931864;29;20225;-74
2022/08/11 02:13:42;;;;;;;6.75;2.50;;;23.70;66.60;;;;;;4931880;29;20258;-74
2022/08/11 02:16:28;;;;;;;5.13;2.10;;;23.80;66.70;;;;;;4934185;29;20199;-75
2022/08/11 02:24:55;;;;;;;3.35;2.05;;;23.70;66.70;;;;;;4936079;29;20202;-73
2022/08/11 02:27:27;;;;;;;3.47;1.85;;;23.70;66.60;;;;;;4934471;28;20202;-73
2022/08/11 02:30:06;;;;;;;4.63;2.17;;;23.70;66.80;;;;;;4932178;29;20210;-73
2022/08/11 02:35:28;;;;;;;4.28;1.92;;;23.70;67.00;;;;;;4928343;29;20210;-75
2022/08/11 02:38:17;;;;;;;3.40;2.03;;;23.60;67.00;;;;;;4932960;29;20198;-74
2022/08/11 02:40:53;;;;;;;4.43;1.98;;;23.60;67.10;;;;;;4936577;29;20203;-74
2022/08/11 02:43:30;;;;;;;2.92;1.85;;;23.60;67.10;;;;;;4932605;28;20198;-74
2022/08/11 02:46:23;;;;;;;6.75;2.17;;;23.60;67.20;;;;;;4937959;28;20202;-74
2022/08/11 02:52:02;;;;;;;3.97;1.90;;;23.60;67.30;;;;;;4941652;29;20206;-73
2022/08/11 02:54:38;;;;;;;4.47;2.30;;;23.60;67.50;;;;;;4940084;29;20202;-74
2022/08/11 02:57:18;;;;;;;3.47;2.05;;;23.50;67.50;;;;;;4937886;28;20194;-73
2022/08/11 02:59:53;;;;;;;5.60;1.85;;;23.50;67.50;;;;;;4933859;29;20233;-73
2022/08/11 03:02:39;;;;;;;4.40;2.05;;;23.50;67.70;;;;;;4934635;29;20185;-72
2022/08/11 03:05:21;;;;;;;4.20;1.83;;;23.50;67.80;;;;;;4936563;29;20206;-73
2022/08/11 03:08:08;;;;;;;4.50;1.80;;;23.50;67.80;;;;;;4942585;29;20281;-73
2022/08/11 03:16:43;;;;;;;5.07;1.70;;;23.50;67.80;;;;;;4936060;29;20243;-74
2022/08/11 03:16:47;;;;;;;3.10;1.83;;;23.50;68.20;;;;;;4951368;29;20216;-74
2022/08/11 03:19:25;;;;;;;3.58;1.92;;;23.50;68.20;;;;;;4936047;29;20265;-75
2022/08/11 03:22:03;;;;;;;5.63;2.10;;;23.40;68.10;;;;;;4935703;29;20221;-74
2022/08/11 03:24:49;;;;;;;4.07;1.80;;;23.40;68.10;;;;;;4934319;29;20333;-75
2022/08/11 03:27:33;;;;;;;4.18;2.38;;;23.40;68.20;;;;;;4934716;29;20191;-75
2022/08/11 03:30:13;;;;;;;2.58;1.77;;;23.40;68.30;;;;;;4935309;28;20812;-76
2022/08/11 03:35:43;;;;;;;3.22;2.15;;;23.40;68.80;;;;;;4934878;29;20741;-75
2022/08/11 03:38:15;;;;;;;4.93;2.13;;;23.40;69.50;;;;;;4937792;29;20202;-74
2022/08/11 03:44:28;;;;;;;5.18;2.25;;;23.30;69.90;;;;;;4942000;29;20260;-75
2022/08/11 03:47:47;;;;;;;5.57;2.35;;;23.30;69.90;;;;;;4935004;28;20972;-74
2022/08/11 03:50:47;;;;;;;8.00;2.00;;;23.30;70.00;;;;;;4893902;29;20267;-74
2022/08/11 03:53:35;;;;;;;4.25;2.22;;;23.40;70.00;;;;;;4936695;29;20194;-75
2022/08/11 03:56:40;;;;;;;2.67;1.77;;;23.40;70.00;;;;;;4932878;28;20669;-75
2022/08/11 03:59:44;;;;;;;3.17;1.90;;;23.40;70.50;;;;;;4936022;29;20210;-75
2022/08/11 04:02:39;;;;;;;6.95;2.35;;;23.40;70.60;;;;;;4920216;29;20212;-75
2022/08/11 04:06:02;;;;;;;5.05;2.00;;;23.40;70.60;;;;;;4933900;29;20214;-75
2022/08/11 04:09:11;;;;;;;3.67;2.00;;;23.40;70.60;;;;;;4930304;29;20238;-75
2022/08/11 04:12:02;;;;;;;8.70;2.35;;;23.40;70.60;;;;;;4875152;29;20204;-76
2022/08/11 04:17:56;;;;;;;8.02;2.25;;;23.50;70.60;;;;;;4943004;29;20187;-74
2022/08/11 04:20:53;;;;;;;7.97;2.10;;;23.50;70.50;;;;;;4935557;29;20203;-75
2022/08/11 04:24:02;;;;;;;8.77;2.25;;;23.50;70.30;;;;;;4936950;29;20203;-75
2022/08/11 04:27:29;;;;;;;9.75;2.47;;;23.60;70.30;;;;;;4935606;29;20207;-75
2022/08/11 04:30:14;;;;;;;8.18;2.33;;;23.60;70.20;;;;;;4940258;29;20207;-75
2022/08/11 04:33:16;;;;;;;8.57;2.65;;;23.70;70.20;;;;;;4938009;29;21700;-74
2022/08/11 04:35:58;;;;;;;5.93;2.10;;;23.70;70.20;;;;;;4937011;29;20718;-75
2022/08/11 04:38:57;;;;;;;2.30;1.58;;;23.70;70.20;;;;;;4931734;28;20198;-74
2022/08/11 04:45:34;;;;;;;4.10;1.70;;;23.80;70.10;;;;;;4899512;29;20287;-74
2022/08/11 05:05:29;;;;;;;10.07;2.80;;;23.90;70.70;;;;;;4941418;29;20222;-74
2022/08/11 05:07:36;;;;;;;4.22;2.20;;;24.00;70.60;;;;;;4906082;29;20215;-74
2022/08/11 05:10:18;;;;;;;5.78;2.28;;;24.00;70.30;;;;;;4918182;28;20664;-74
2022/08/11 05:12:51;;;;;;;6.10;2.42;;;24.10;70.30;;;;;;4932035;29;20277;-74
2022/08/11 05:35:48;;;;;;;10.75;2.25;;;24.50;69.50;;;;;;4945217;28;20233;-75
2022/08/11 05:58:35;;;;;;;2.55;1.20;;;25.20;66.90;;;;;;4932074;28;20297;-75
2022/08/11 06:01:12;;;;;;;4.45;1.63;;;25.20;66.60;;;;;;4935784;28;20581;-75
2022/08/11 06:06:31;;;;;;;2.90;1.42;;;25.40;65.70;;;;;;4938976;29;20198;-76
2022/08/11 06:09:00;;;;;;;4.72;1.60;;;25.40;65.60;;;;;;4936549;29;20202;-75
2022/08/11 06:11:31;;;;;;;4.32;1.40;;;25.50;65.30;;;;;;4939307;28;20201;-76
2022/08/11 06:14:12;;;;;;;4.75;1.55;;;25.60;65.20;;;;;;4938455;29;20198;-77
2022/08/11 06:16:42;;;;;;;3.95;1.42;;;25.60;65.10;;;;;;4944329;28;20226;-78
2022/08/11 06:19:11;;;;;;;6.85;2.10;;;25.60;64.80;;;;;;4945052;28;20190;-77
2022/08/11 06:21:46;;;;;;;3.63;1.73;;;25.70;64.90;;;;;;4947007;28;20206;-76
2022/08/11 06:24:15;;;;;;;3.58;1.40;;;25.80;64.40;;;;;;4940166;29;20193;-78
2022/08/11 06:26:50;;;;;;;4.20;1.88;;;25.80;64.20;;;;;;4947101;28;20216;-77
2022/08/11 06:29:47;;;;;;;2.42;1.58;;;25.90;64.30;;;;;;4948373;29;20198;-77
2022/08/11 06:32:27;;;;;;;3.67;1.92;;;26.00;64.30;;;;;;4938997;29;20198;-78
2022/08/11 06:35:19;;;;;;;3.60;1.63;;;26.10;64.20;;;;;;4934341;28;20290;-78
2022/08/11 06:38:02;;;;;;;2.25;1.20;;;26.10;64.00;;;;;;4950809;29;20199;-76
2022/08/11 06:40:42;;;;;;;3.53;1.52;;;26.20;63.60;;;;;;4948782;29;20297;-77
2022/08/11 06:43:18;;;;;;;5.05;1.88;;;26.30;63.20;;;;;;4943869;29;20191;-76
2022/08/11 06:45:57;;;;;;;2.55;1.60;;;26.40;62.80;;;;;;4947547;28;20637;-78
2022/08/11 06:48:27;;;;;;;3.05;1.63;;;26.40;62.20;;;;;;4947089;29;20230;-78
2022/08/11 06:51:12;;;;;;;2.40;1.60;;;26.40;62.10;;;;;;4943350;28;20716;-76
2022/08/11 06:53:46;;;;;;;3.65;1.65;;;26.40;62.00;;;;;;4942431;28;20226;-76
2022/08/11 07:02:33;;;;;;;2.67;1.60;;;26.50;61.30;;;;;;4943335;28;20195;-77
2022/08/11 07:05:07;;;;;;;4.68;1.55;;;26.60;61.20;;;;;;4946116;29;20206;-78
2022/08/11 07:17:14;;;;;;;4.20;1.35;;;26.60;60.20;;;;;;4937178;28;20228;-76
2022/08/11 07:31:07;;;;;;;5.28;1.33;;;26.80;58.60;;;;;;4942983;28;20198;-76
2022/08/11 07:33:44;;;;;;;1.70;1.00;;;26.80;58.10;;;;;;4947901;29;20195;-77
2022/08/11 07:36:34;;;;;;;1.92;1.13;;;26.80;58.00;;;;;;4942831;29;20233;-78
2022/08/11 07:39:07;;;;;;;4.65;1.10;;;26.90;57.50;;;;;;4932923;28;20897;-77
2022/08/11 07:41:35;;;;;;;4.50;1.05;;;26.90;56.60;;;;;;4946178;29;20195;-78
2022/08/11 07:44:08;;;;;;;2.35;1.10;;;26.90;57.00;;;;;;4942064;29;20233;-77
2022/08/11 07:52:31;;;;;;;3.88;1.00;;;27.00;56.30;;;;;;4942630;29;20404;-78
2022/08/11 07:55:04;;;;;;;5.85;1.20;;;27.10;56.40;;;;;;4940430;29;20367;-78
2022/08/11 08:17:57;;;;;;;2.35;1.20;;;27.40;55.10;;;;;;4938615;28;20217;-76
2022/08/11 08:20:48;;;;;;;2.65;1.27;;;27.50;55.20;;;;;;4939314;29;20854;-74
2022/08/11 08:23:31;;;;;;;1.58;1.10;;;27.50;55.30;;;;;;4937883;28;20217;-74
2022/08/11 08:26:03;;;;;;;2.03;1.05;;;27.60;55.00;;;;;;4940859;28;20247;-76
2022/08/11 08:28:34;;;;;;;4.90;1.00;;;27.60;54.90;;;;;;4940168;29;20285;-75
2022/08/11 08:31:03;;;;;;;2.00;0.90;;;27.70;54.80;;;;;;4935358;28;20249;-77
2022/08/11 08:33:32;;;;;;;2.05;1.30;;;27.70;54.90;;;;;;4933532;28;20207;-74
2022/08/11 08:36:14;;;;;;;1.63;1.10;;;27.80;54.70;;;;;;4936866;28;20226;-77
2022/08/11 08:38:47;;;;;;;3.45;1.30;;;27.80;54.60;;;;;;4931708;28;20195;-74
2022/08/11 08:41:20;;;;;;;2.47;1.40;;;27.90;53.90;;;;;;4936550;28;20859;-74
2022/08/11 08:43:53;;;;;;;3.50;1.25;;;28.00;54.10;;;;;;4936791;28;20198;-75
2022/08/11 08:46:49;;;;;;;2.13;1.10;;;28.10;54.10;;;;;;4917900;29;20733;-74
2022/08/11 08:49:22;;;;;;;2.92;1.23;;;28.20;54.20;;;;;;4915846;29;20253;-76
2022/08/11 08:51:55;;;;;;;2.30;1.20;;;28.30;54.30;;;;;;4914122;29;20203;-80
2022/08/11 08:54:45;;;;;;;4.28;1.30;;;28.30;53.80;;;;;;4912769;29;20439;-74
2022/08/11 08:57:17;;;;;;;3.28;1.00;;;28.50;53.10;;;;;;4921089;29;20219;-75
2022/08/11 08:59:49;;;;;;;4.45;1.15;;;28.60;53.30;;;;;;4916908;29;20836;-76
2022/08/11 09:02:26;;;;;;;2.40;1.20;;;28.70;53.60;;;;;;4909068;29;20240;-77
2022/08/11 09:05:04;;;;;;;2.08;1.30;;;28.70;53.10;;;;;;4921687;29;20707;-73
2022/08/11 09:07:33;;;;;;;4.30;1.27;;;28.70;53.20;;;;;;4936545;28;20253;-76
2022/08/11 09:10:08;;;;;;;2.28;1.30;;;28.80;53.10;;;;;;4931556;28;20187;-76
2022/08/11 09:12:40;;;;;;;4.72;1.30;;;28.80;52.80;;;;;;4932016;28;20199;-77
2022/08/11 09:15:12;;;;;;;1.67;1.38;;;28.90;53.00;;;;;;4940380;29;20187;-75
2022/08/11 09:17:48;;;;;;;1.42;1.05;;;29.00;52.60;;;;;;4938360;29;20297;-75
2022/08/11 09:20:19;;;;;;;4.00;1.42;;;29.00;52.60;;;;;;4940227;29;20229;-76
2022/08/11 09:28:44;;;;;;;2.40;1.58;;;29.00;52.10;;;;;;4940856;28;20188;-75
2022/08/11 09:31:15;;;;;;;2.78;1.23;;;29.10;52.30;;;;;;4936286;29;20203;-74
2022/08/11 09:33:46;;;;;;;3.67;1.35;;;29.10;52.50;;;;;;4935153;29;20275;-74
2022/08/11 09:41:49;;;;;;;6.13;1.42;;;29.40;52.30;;;;;;4942843;29;20203;-75
2022/08/11 09:44:47;;;;;;;2.75;1.13;;;29.50;51.80;;;;;;4939781;29;20237;-74
2022/08/11 09:47:23;;;;;;;3.00;1.30;;;29.50;51.80;;;;;;4936346;29;20194;-74
2022/08/11 09:49:54;;;;;;;3.72;1.50;;;29.50;51.80;;;;;;4934378;28;21156;-73
2022/08/11 09:52:25;;;;;;;4.47;1.42;;;29.50;51.90;;;;;;4940977;28;20805;-74
2022/08/11 09:54:54;;;;;;;2.05;1.25;;;29.50;51.90;;;;;;4929689;28;20225;-74
2022/08/11 10:00:13;;;;;;;1.42;1.30;;;29.50;51.00;;;;;;4938659;29;20190;-74
2022/08/11 10:02:47;;;;;;;3.70;1.48;;;29.50;51.10;;;;;;4941403;29;20214;-74
2022/08/11 10:08:09;;;;;;;3.35;1.20;;;29.40;50.40;;;;;;4935251;28;20277;-74
2022/08/11 10:10:39;;;;;;;5.18;1.20;;;29.40;50.90;;;;;;4942334;28;20616;-73
2022/08/11 10:13:16;;;;;;;1.70;1.20;;;29.40;51.10;;;;;;4938252;29;20201;-73
2022/08/11 10:16:08;;;;;;;2.33;1.23;;;29.50;51.10;;;;;;4939120;29;20292;-75
2022/08/11 10:18:51;;;;;;;1.27;0.98;;;29.50;50.80;;;;;;4934881;29;20214;-74
2022/08/11 10:21:27;;;;;;;2.33;1.27;;;29.50;50.60;;;;;;4938031;28;20277;-74
2022/08/11 10:26:59;;;;;;;2.28;1.33;;;29.70;51.10;;;;;;4938293;28;20199;-74
2022/08/11 10:35:28;;;;;;;3.13;1.13;;;29.80;50.50;;;;;;4936610;29;20974;-74
2022/08/11 10:37:57;;;;;;;1.85;1.10;;;29.70;50.10;;;;;;4931963;28;20587;-74
2022/08/11 10:43:01;;;;;;;1.65;1.17;;;29.70;50.10;;;;;;4941875;28;20202;-74
2022/08/11 10:43:38;;;;;;;4.70;1.38;;;29.80;50.40;;;;;;4938459;28;20187;-74
2022/08/11 10:49:14;;;;;;;2.30;1.15;;;29.80;50.10;;;;;;4937771;29;20233;-74
2022/08/11 11:00:06;;;;;;;2.63;1.10;;;30.00;50.50;;;;;;4936788;29;20186;-75
2022/08/11 11:02:35;;;;;;;1.35;1.00;;;30.00;50.50;;;;;;4935057;28;20645;-74
2022/08/11 11:05:09;;;;;;;4.97;1.20;;;30.10;50.40;;;;;;4932988;28;20207;-75
2022/08/11 11:07:50;;;;;;;3.03;1.15;;;30.10;50.40;;;;;;4933964;28;20201;-74
2022/08/11 11:10:20;;;;;;;2.67;1.10;;;30.20;50.50;;;;;;4937995;28;20305;-74
2022/08/11 11:18:34;;;;;;;2.17;1.20;;;30.30;50.00;;;;;;4939972;29;20222;-74
2022/08/11 11:21:07;;;;;;;4.65;1.55;;;30.40;50.10;;;;;;4936535;28;20666;-75
2022/08/11 11:23:46;;;;;;;2.15;1.42;;;30.40;50.10;;;;;;4946811;29;20217;-75
2022/08/11 11:26:38;;;;;;;1.73;1.17;;;30.40;50.10;;;;;;4942385;29;20225;-74
2022/08/11 11:29:33;;;;;;;2.53;1.00;;;30.40;50.10;;;;;;4940864;29;20198;-74
2022/08/11 11:32:20;;;;;;;4.30;1.40;;;30.40;50.20;;;;;;4944152;28;20675;-76
2022/08/11 11:35:26;;;;;;;1.45;1.08;;;30.50;50.10;;;;;;4935204;28;20701;-76
2022/08/11 11:37:57;;;;;;;4.43;1.10;;;30.50;50.10;;;;;;4892051;29;20239;-74
2022/08/11 11:40:34;;;;;;;4.50;1.80;;;30.50;49.60;;;;;;4940969;28;20286;-73
2022/08/11 11:43:04;;;;;;;2.30;1.30;;;30.60;49.70;;;;;;4939160;28;20218;-74
2022/08/11 11:45:32;;;;;;;2.97;1.50;;;30.70;49.90;;;;;;4941124;28;20209;-74
2022/08/11 11:48:02;;;;;;;1.63;1.27;;;30.70;49.70;;;;;;4944532;29;20202;-75
2022/08/11 11:50:33;;;;;;;1.88;1.00;;;30.70;49.50;;;;;;4936616;29;20194;-74
2022/08/11 11:53:05;;;;;;;2.00;1.17;;;30.80;49.60;;;;;;4941612;29;20234;-75
2022/08/11 11:55:36;;;;;;;2.08;1.38;;;30.80;48.90;;;;;;4945036;28;20217;-75
2022/08/11 12:03:40;;;;;;;1.15;1.05;;;30.70;48.60;;;;;;4939647;29;20755;-75
2022/08/11 12:06:10;;;;;;;3.08;1.05;;;30.70;48.30;;;;;;4938331;29;20677;-75
2022/08/11 12:08:40;;;;;;;2.22;0.98;;;30.70;48.40;;;;;;4940280;29;20197;-74
2022/08/11 12:13:58;;;;;;;1.13;1.00;;;30.80;48.40;;;;;;4920265;28;20202;-75
2022/08/11 12:16:28;;;;;;;1.67;1.30;;;30.80;48.40;;;;;;4943626;28;20882;-74
2022/08/11 12:19:06;;;;;;;2.10;1.10;;;30.90;48.40;;;;;;4934266;29;20326;-75
2022/08/11 12:21:36;;;;;;;5.65;1.20;;;30.90;48.40;;;;;;4932438;29;20195;-74
2022/08/11 12:29:47;;;;;;;1.65;0.98;;;31.10;47.90;;;;;;4933146;29;20186;-74
2022/08/11 12:32:25;;;;;;;2.45;1.00;;;31.10;47.90;;;;;;4934815;28;20183;-75
2022/08/11 12:34:55;;;;;;;1.60;1.00;;;31.20;47.80;;;;;;4943823;29;20195;-74
2022/08/11 12:37:30;;;;;;;1.83;0.93;;;31.20;47.30;;;;;;4934382;28;20290;-76
2022/08/11 12:46:11;;;;;;;4.20;1.02;;;31.20;47.40;;;;;;4936852;29;20198;-75
2022/08/11 12:54:50;;;;;;;2.13;1.00;;;31.20;47.30;;;;;;4932214;29;20282;-75
2022/08/11 13:05:51;;;;;;;3.03;0.98;;;31.40;47.40;;;;;;4932573;28;20715;-76
2022/08/11 13:08:22;;;;;;;2.25;1.23;;;31.40;47.30;;;;;;4937635;29;20194;-74
2022/08/11 13:13:39;;;;;;;2.30;1.13;;;31.50;46.90;;;;;;4937283;28;20278;-77
2022/08/11 13:16:28;;;;;;;2.28;1.02;;;31.50;46.70;;;;;;4942098;28;20197;-77
2022/08/11 13:19:01;;;;;;;1.88;1.00;;;31.40;46.80;;;;;;4946450;29;20257;-78
2022/08/11 13:21:31;;;;;;;2.28;1.27;;;31.40;46.50;;;;;;4942749;28;20266;-79
2022/08/11 13:24:01;;;;;;;3.60;1.15;;;31.40;46.40;;;;;;4934611;28;20221;-77
2022/08/11 13:26:40;;;;;;;1.60;1.27;;;31.40;46.60;;;;;;4944990;28;20194;-77
2022/08/11 13:29:23;;;;;;;1.65;0.88;;;31.40;46.30;;;;;;4945408;28;20202;-77
2022/08/11 13:31:57;;;;;;;2.42;1.30;;;31.40;46.20;;;;;;4946650;28;20269;-78
2022/08/11 13:34:27;;;;;;;6.45;1.23;;;31.40;46.20;;;;;;4942620;28;20190;-77
2022/08/11 13:36:58;;;;;;;1.65;1.02;;;31.40;46.20;;;;;;4943255;29;20190;-79
2022/08/11 13:39:28;;;;;;;2.10;0.98;;;31.40;46.00;;;;;;4939897;28;20207;-77
2022/08/11 13:41:59;;;;;;;2.28;1.17;;;31.40;45.80;;;;;;4942949;29;20204;-77
2022/08/11 13:44:29;;;;;;;4.60;1.52;;;31.40;45.40;;;;;;4940004;28;20249;-78
2022/08/11 13:47:03;;;;;;;2.25;1.15;;;31.40;45.90;;;;;;4939208;29;20239;-78
2022/08/11 13:49:34;;;;;;;1.85;1.00;;;31.40;46.10;;;;;;4945554;29;20205;-77
2022/08/11 13:52:12;;;;;;;1.92;1.15;;;31.40;46.30;;;;;;4939060;29;20194;-78
2022/08/11 13:54:42;;;;;;;1.67;1.10;;;31.40;46.10;;;;;;4936757;29;20687;-77
2022/08/11 13:57:13;;;;;;;2.45;1.30;;;31.50;46.20;;;;;;4933518;29;20199;-78
2022/08/11 14:00:09;;;;;;;2.78;1.23;;;31.60;46.20;;;;;;4939530;29;20275;-78
2022/08/11 14:02:55;;;;;;;3.00;1.50;;;31.70;46.40;;;;;;4935739;29;20206;-77
2022/08/11 14:05:29;;;;;;;6.07;1.45;;;31.80;47.10;;;;;;4937892;28;20203;-78
2022/08/11 14:08:02;;;;;;;2.97;1.30;;;31.80;45.90;;;;;;4936907;28;20198;-77
2022/08/11 14:10:33;;;;;;;2.80;0.93;;;31.80;46.00;;;;;;4936167;29;20213;-77
2022/08/11 14:15:53;;;;;;;1.70;1.40;;;31.70;45.50;;;;;;4937058;28;20204;-78
2022/08/11 14:18:28;;;;;;;2.40;1.23;;;31.80;45.70;;;;;;4945265;28;20567;-78
2022/08/11 14:23:48;;;;;;;3.17;1.55;;;31.80;45.90;;;;;;4936570;28;20194;-78
2022/08/11 14:26:25;;;;;;;2.08;1.10;;;31.90;46.00;;;;;;4940389;28;20918;-78
2022/08/11 14:29:02;;;;;;;1.95;1.10;;;32.00;46.00;;;;;;4941748;29;20245;-75
2022/08/11 14:31:33;;;;;;;4.45;1.70;;;32.00;46.00;;;;;;4936474;29;20254;-76
2022/08/11 14:34:06;;;;;;;1.80;1.17;;;32.10;45.90;;;;;;4937351;29;20234;-75
2022/08/11 14:36:38;;;;;;;6.55;1.20;;;32.50;45.30;;;;;;4939633;28;20273;-77
2022/08/11 14:39:11;;;;;;;5.03;1.35;;;32.60;45.30;;;;;;4937953;29;20210;-75
2022/08/11 14:47:30;;;;;;;1.73;1.17;;;33.00;44.10;;;;;;4945560;28;20195;-77
2022/08/11 14:50:02;;;;;;;1.83;1.15;;;32.80;44.10;;;;;;4936798;28;20210;-76
2022/08/11 14:52:44;;;;;;;2.75;1.20;;;32.70;44.10;;;;;;4938678;28;20222;-76
2022/08/11 14:58:01;;;;;;;4.35;1.00;;;32.40;44.30;;;;;;4933650;29;20203;-75
2022/08/11 15:00:31;;;;;;;3.97;1.30;;;32.30;44.40;;;;;;4939359;29;20237;-75
2022/08/11 15:03:11;;;;;;;2.85;1.23;;;32.20;44.50;;;;;;4941948;28;20806;-75
2022/08/11 15:05:49;;;;;;;2.47;1.00;;;32.20;44.80;;;;;;4935849;29;20225;-76
2022/08/11 15:14:06;;;;;;;1.13;1.00;;;32.50;44.30;;;;;;4943317;29;20195;-76
2022/08/11 15:19:26;;;;;;;5.53;1.60;;;32.30;44.60;;;;;;4932015;29;20253;-76
2022/08/11 15:24:41;;;;;;;1.45;1.20;;;32.30;44.70;;;;;;4935479;29;20277;-76
2022/08/11 15:38:47;;;;;;;7.97;1.80;;;32.30;45.00;;;;;;4940860;29;20194;-74
2022/08/11 15:47:36;;;;;;;4.28;1.50;;;32.30;45.00;;;;;;4940898;28;20202;-75
2022/08/11 15:50:06;;;;;;;3.20;1.20;;;32.20;44.90;;;;;;4934583;28;20199;-76
2022/08/11 15:52:46;;;;;;;5.30;1.23;;;32.20;44.80;;;;;;4934996;29;20649;-75
2022/08/11 15:55:17;;;;;;;4.63;1.27;;;32.10;44.70;;;;;;4941147;28;20213;-75
2022/08/11 16:06:42;;;;;;;2.75;1.20;;;31.90;44.80;;;;;;4939557;29;20201;-76
2022/08/11 16:09:20;;;;;;;4.22;1.30;;;31.80;45.00;;;;;;4940438;28;20202;-74
2022/08/11 16:11:52;;;;;;;1.60;1.25;;;31.80;45.00;;;;;;4940112;29;20196;-75
2022/08/11 16:17:14;;;;;;;6.10;1.17;;;31.70;45.00;;;;;;4932750;29;20194;-75
2022/08/11 16:19:44;;;;;;;2.53;1.42;;;31.60;44.80;;;;;;4945192;29;20583;-76
2022/08/11 16:22:14;;;;;;;1.90;1.33;;;31.60;45.00;;;;;;4933202;29;20194;-75
2022/08/11 16:24:46;;;;;;;4.78;1.38;;;31.50;45.10;;;;;;4942395;28;20190;-76
2022/08/11 16:27:40;;;;;;;2.88;1.70;;;31.50;45.20;;;;;;4941872;29;20695;-75
2022/08/11 16:30:10;;;;;;;2.88;1.25;;;31.40;45.30;;;;;;4935058;28;21208;-75
2022/08/11 16:32:41;;;;;;;1.38;1.10;;;31.30;45.30;;;;;;4942056;29;20198;-75
2022/08/11 16:40:49;;;;;;;2.45;1.30;;;31.00;45.10;;;;;;4941758;29;20229;-75
2022/08/11 16:48:56;;;;;;;2.92;1.45;;;30.80;47.00;;;;;;4940557;29;20308;-77
2022/08/11 16:51:25;;;;;;;2.88;1.98;;;30.60;47.30;;;;;;4936205;28;20692;-76
2022/08/11 16:53:53;;;;;;;6.13;2.00;;;30.50;47.40;;;;;;4945509;29;20873;-76
2022/08/11 16:56:37;;;;;;;2.30;1.60;;;30.50;47.60;;;;;;4932277;28;20197;-76
2022/08/11 16:59:13;;;;;;;5.00;1.60;;;30.40;47.80;;;;;;4935720;28;20190;-76
2022/08/11 17:01:47;;;;;;;3.13;1.60;;;30.40;47.90;;;;;;4940873;29;20215;-76
2022/08/11 17:13:27;;;;;;;4.22;1.85;;;30.10;48.30;;;;;;4936169;28;20190;-76
2022/08/11 17:16:10;;;;;;;6.57;1.80;;;30.00;48.50;;;;;;4934051;29;20194;-75
2022/08/11 17:18:51;;;;;;;2.97;1.70;;;30.00;48.70;;;;;;4942036;28;20688;-76
2022/08/11 17:21:26;;;;;;;3.75;1.80;;;29.80;48.90;;;;;;4938789;28;20214;-75
2022/08/11 17:23:57;;;;;;;3.97;1.77;;;29.80;49.00;;;;;;4938573;28;20190;-76
2022/08/11 17:29:14;;;;;;;6.50;2.17;;;29.70;49.20;;;;;;4940698;29;20198;-75
2022/08/11 17:37:19;;;;;;;5.18;2.00;;;29.40;49.70;;;;;;4938469;28;20198;-74
2022/08/11 17:39:50;;;;;;;7.15;1.60;;;29.30;49.80;;;;;;4941522;28;20228;-74
2022/08/11 17:50:39;;;;;;;6.15;1.92;;;29.10;50.60;;;;;;4935052;28;20882;-75
2022/08/11 18:01:34;;;;;;;5.43;2.28;;;28.70;51.30;;;;;;4936338;29;20221;-74
2022/08/11 18:04:05;;;;;;;5.68;2.53;;;28.70;51.30;;;;;;4943819;28;20194;-74
2022/08/11 18:06:36;;;;;;;7.10;2.70;;;28.70;51.30;;;;;;4941345;28;20198;-75
